createdAt,value
2022-10-10T00:01:43.340Z,6.93
2022-10-10T00:04:46.338Z,6.92
2022-10-10T00:07:56.464Z,7.07
2022-10-10T00:11:02.185Z,7.05
2022-10-10T00:14:05.670Z,7.07
2022-10-10T00:17:12.893Z,6.98
2022-10-10T00:20:34.875Z,7.06
2022-10-10T00:23:46.576Z,7.04
2022-10-10T00:26:49.644Z,7.07
2022-10-10T00:29:57.025Z,7.11
2022-10-10T00:33:06.785Z,7.16
2022-10-10T00:36:35.429Z,7.21
2022-10-10T00:39:54.180Z,7.20
2022-10-10T00:42:59.015Z,7.21
2022-10-10T00:46:03.273Z,7.03
2022-10-10T00:49:13.634Z,7.12
2022-10-10T00:52:17.907Z,6.99
2022-10-10T00:55:23.864Z,6.94
2022-10-10T00:58:27.156Z,6.87
2022-10-10T01:01:31.022Z,6.93
2022-10-10T01:04:40.540Z,6.98
2022-10-10T01:07:50.384Z,6.98
2022-10-10T01:11:13.634Z,6.98
2022-10-10T01:14:26.913Z,7.35
2022-10-10T01:17:34.277Z,7.39
2022-10-10T01:20:54.647Z,7.37
2022-10-10T01:24:27.495Z,7.24
2022-10-10T01:27:43.948Z,7.26
2022-10-10T01:30:50.000Z,7.33
2022-10-10T01:34:05.827Z,7.33
2022-10-10T01:37:17.759Z,7.28
2022-10-10T01:40:28.002Z,7.38
2022-10-10T01:43:31.744Z,7.42
2022-10-10T01:46:39.520Z,7.36
2022-10-10T01:49:55.492Z,7.42
2022-10-10T01:53:13.445Z,7.44
2022-10-10T01:56:39.380Z,7.49
2022-10-10T01:59:58.500Z,7.51
2022-10-10T02:03:12.006Z,7.49
2022-10-10T02:06:26.703Z,7.43
2022-10-10T02:09:42.726Z,7.31
2022-10-10T02:12:51.128Z,7.40
2022-10-10T02:15:59.363Z,7.49
2022-10-10T02:19:09.668Z,7.50
2022-10-10T02:22:13.069Z,7.20
2022-10-10T02:25:16.243Z,7.36
2022-10-10T02:28:25.044Z,7.30
2022-10-10T02:31:32.849Z,7.14
2022-10-10T02:34:48.666Z,7.15
2022-10-10T02:37:54.394Z,6.96
2022-10-10T02:41:03.955Z,6.91
2022-10-10T02:44:07.878Z,7.04
2022-10-10T02:47:12.038Z,6.87
2022-10-10T02:50:17.328Z,6.90
2022-10-10T02:53:22.168Z,6.71
2022-10-10T02:56:28.868Z,6.72
2022-10-10T02:59:37.253Z,6.67
2022-10-10T03:02:44.239Z,6.60
2022-10-10T03:05:49.066Z,6.54
2022-10-10T03:08:56.864Z,6.60
2022-10-10T03:12:09.979Z,6.72
2022-10-10T03:15:18.201Z,6.65
2022-10-10T03:18:21.981Z,6.44
2022-10-10T03:21:31.856Z,6.54
2022-10-10T03:24:35.070Z,6.66
2022-10-10T03:27:38.398Z,6.63
2022-10-10T03:30:41.588Z,6.74
2022-10-10T03:33:45.001Z,6.78
2022-10-10T03:36:49.525Z,6.71
2022-10-10T03:39:52.911Z,6.80
2022-10-10T03:42:58.239Z,6.92
2022-10-10T03:46:42.937Z,6.89
2022-10-10T03:49:54.830Z,6.91
2022-10-10T03:53:06.123Z,6.97
2022-10-10T03:56:09.402Z,7.08
2022-10-10T03:59:12.769Z,6.82
2022-10-10T04:02:15.745Z,6.86
2022-10-10T04:05:19.036Z,6.86
2022-10-10T04:08:24.324Z,6.70
2022-10-10T04:11:40.482Z,6.76
2022-10-10T04:14:51.040Z,6.76
2022-10-10T04:17:54.222Z,6.68
2022-10-10T04:21:11.770Z,6.81
2022-10-10T04:24:42.894Z,6.85
2022-10-10T04:27:46.155Z,6.86
2022-10-10T04:30:50.937Z,6.90
2022-10-10T04:34:11.636Z,6.92
2022-10-10T04:37:36.547Z,6.94
2022-10-10T04:40:46.777Z,6.99
2022-10-10T04:43:50.826Z,6.87
2022-10-10T04:46:57.208Z,6.63
2022-10-10T04:50:01.560Z,6.59
2022-10-10T04:53:15.002Z,6.43
2022-10-10T04:56:24.289Z,6.54
2022-10-10T04:59:32.298Z,6.47
2022-10-10T05:02:46.052Z,6.60
2022-10-10T05:05:57.358Z,6.37
2022-10-10T05:09:10.636Z,6.45
2022-10-10T05:12:40.360Z,6.58
2022-10-10T05:16:04.951Z,6.64
2022-10-10T05:19:44.554Z,6.62
2022-10-10T05:22:49.698Z,6.77
2022-10-10T05:30:20.849Z,6.84
2022-10-10T05:53:40.537Z,6.64
2022-10-10T05:56:46.480Z,6.68
2022-10-10T05:59:49.398Z,6.86
2022-10-10T06:02:52.506Z,6.97
2022-10-10T06:05:55.567Z,7.01
2022-10-10T06:09:11.602Z,6.99
2022-10-10T06:12:21.436Z,7.07
2022-10-10T06:15:24.490Z,7.18
2022-10-10T06:18:27.631Z,6.90
2022-10-10T06:21:30.933Z,6.85
2022-10-10T06:24:35.609Z,6.97
2022-10-10T06:27:39.580Z,6.92
2022-10-10T06:30:43.589Z,6.90
2022-10-10T06:33:48.199Z,6.89
2022-10-10T06:36:51.507Z,6.87
2022-10-10T06:39:56.628Z,6.85
2022-10-10T06:42:59.913Z,6.91
2022-10-10T06:46:04.093Z,6.96
2022-10-10T06:49:07.535Z,7.01
2022-10-10T06:52:10.675Z,7.09
2022-10-10T06:55:15.350Z,7.21
2022-10-10T06:58:18.461Z,7.35
2022-10-10T07:01:24.344Z,7.45
2022-10-10T07:04:27.579Z,7.53
2022-10-10T07:07:30.841Z,7.62
2022-10-10T07:10:35.351Z,7.69
2022-10-10T07:13:39.212Z,7.76
2022-10-10T07:16:42.421Z,7.85
2022-10-10T07:19:45.572Z,7.92
2022-10-10T07:22:49.049Z,8.01
2022-10-10T07:25:54.088Z,8.09
2022-10-10T07:28:57.293Z,8.14
2022-10-10T07:32:00.530Z,8.22
2022-10-10T07:35:03.583Z,8.29
2022-10-10T07:38:06.976Z,8.40
2022-10-10T07:41:14.131Z,8.46
2022-10-10T07:44:17.505Z,8.51
2022-10-10T07:47:20.679Z,8.56
2022-10-10T07:50:26.079Z,8.62
2022-10-10T07:53:29.253Z,8.67
2022-10-10T07:56:34.534Z,8.70
2022-10-10T07:59:37.854Z,8.75
2022-10-10T08:02:41.028Z,8.81
2022-10-10T08:05:47.085Z,8.87
2022-10-10T08:08:52.190Z,8.96
2022-10-10T08:11:57.057Z,9.00
2022-10-10T08:15:00.926Z,9.06
2022-10-10T08:18:07.413Z,9.10
2022-10-10T08:21:13.006Z,9.18
2022-10-10T08:24:16.652Z,9.28
2022-10-10T08:31:03.096Z,9.37
2022-10-10T08:34:34.075Z,9.45
2022-10-10T09:25:03.429Z,11.13
2022-10-10T09:28:13.029Z,11.29
2022-10-10T09:31:20.452Z,11.32
2022-10-10T09:34:33.268Z,11.54
2022-10-10T09:37:47.298Z,11.71
2022-10-10T09:40:58.527Z,11.86
2022-10-10T09:44:07.445Z,11.91
2022-10-10T09:47:13.681Z,12.08
2022-10-10T09:50:18.051Z,12.29
2022-10-10T09:53:21.438Z,12.36
2022-10-10T09:56:32.274Z,12.55
2022-10-10T09:59:40.849Z,12.81
2022-10-10T10:02:44.135Z,13.08
2022-10-10T10:05:55.675Z,13.24
2022-10-10T10:09:02.781Z,13.42
2022-10-10T10:12:07.594Z,13.56
2022-10-10T10:15:19.969Z,13.72
2022-10-10T10:18:27.781Z,13.84
2022-10-10T10:21:32.391Z,14.03
2022-10-10T10:32:53.489Z,14.30
2022-10-10T10:36:31.756Z,14.39
2022-10-10T10:40:11.277Z,14.46
2022-10-10T10:44:05.269Z,14.82
2022-10-10T10:47:30.740Z,15.11
2022-10-10T10:55:26.840Z,15.51
2022-10-10T11:07:24.891Z,15.51
2022-10-10T11:10:56.884Z,15.62
2022-10-10T11:14:43.298Z,15.62
2022-10-10T11:18:17.658Z,15.79
2022-10-10T11:21:39.472Z,15.92
2022-10-10T11:25:07.343Z,16.07
2022-10-10T11:28:29.370Z,16.18
2022-10-10T11:31:48.605Z,16.26
2022-10-10T11:35:30.406Z,16.33
2022-10-10T11:39:07.612Z,16.42
2022-10-10T11:42:44.275Z,16.36
2022-10-10T11:46:03.107Z,16.47
2022-10-10T11:49:21.051Z,16.45
2022-10-10T11:52:54.455Z,16.74
2022-10-10T11:56:39.415Z,16.74
2022-10-10T11:59:58.784Z,16.82
2022-10-10T12:03:15.243Z,16.82
2022-10-10T12:06:49.544Z,16.95
2022-10-10T12:10:41.524Z,16.67
2022-10-10T12:14:07.434Z,16.94
2022-10-10T12:17:34.870Z,16.95
2022-10-10T12:20:47.866Z,16.96
2022-10-10T12:24:09.983Z,16.86
2022-10-10T12:27:43.482Z,16.83
2022-10-10T12:31:57.639Z,16.88
2022-10-10T12:35:31.547Z,16.92
2022-10-10T12:38:34.997Z,16.64
2022-10-10T12:41:56.329Z,16.74
2022-10-10T12:45:00.027Z,16.63
2022-10-10T12:48:07.328Z,16.84
2022-10-10T12:51:24.073Z,16.80
2022-10-10T12:54:33.991Z,16.89
2022-10-10T12:57:41.644Z,16.95
2022-10-10T13:00:47.148Z,17.02
2022-10-10T13:03:52.992Z,17.07
2022-10-10T13:06:59.499Z,17.21
2022-10-10T13:10:08.717Z,17.22
2022-10-10T13:13:19.782Z,17.03
2022-10-10T13:16:27.657Z,16.83
2022-10-10T13:19:42.872Z,16.56
2022-10-10T13:22:47.570Z,16.43
2022-10-10T13:25:50.889Z,16.40
2022-10-10T13:28:57.032Z,16.32
2022-10-10T13:32:03.258Z,16.25
2022-10-10T13:35:13.409Z,16.11
2022-10-10T13:38:21.419Z,16.12
2022-10-10T13:41:25.783Z,16.28
2022-10-10T13:44:33.797Z,16.47
2022-10-10T13:47:54.634Z,16.60
2022-10-10T13:51:04.407Z,16.74
2022-10-10T13:54:38.172Z,16.88
2022-10-10T13:57:43.731Z,16.65
2022-10-10T14:00:56.279Z,16.56
2022-10-10T14:04:04.204Z,16.54
2022-10-10T14:07:12.821Z,16.62
2022-10-10T14:10:21.706Z,16.73
2022-10-10T14:13:25.770Z,16.81
2022-10-10T14:16:28.943Z,16.68
2022-10-10T14:19:33.267Z,16.70
2022-10-10T14:22:36.542Z,16.55
2022-10-10T14:25:42.764Z,16.50
2022-10-10T14:28:46.855Z,16.49
2022-10-10T14:31:50.282Z,16.41
2022-10-10T14:34:53.555Z,16.43
2022-10-10T14:37:56.856Z,16.49
2022-10-10T14:41:02.468Z,16.53
2022-10-10T14:44:06.264Z,16.58
2022-10-10T14:47:15.755Z,16.58
2022-10-10T14:50:21.300Z,16.61
2022-10-10T14:53:24.567Z,16.63
2022-10-10T14:57:07.217Z,16.51
2022-10-10T14:59:56.850Z,16.52
2022-10-10T15:03:00.191Z,16.38
2022-10-10T15:06:12.224Z,16.33
2022-10-10T15:09:39.601Z,16.28
2022-10-10T15:12:42.982Z,16.16
2022-10-10T15:32:15.351Z,16.01
2022-10-10T15:35:22.649Z,16.05
2022-10-10T15:38:50.583Z,16.09
2022-10-10T15:42:22.734Z,16.11
2022-10-10T15:45:54.894Z,16.07
2022-10-10T15:49:06.852Z,16.08
2022-10-10T15:52:28.009Z,16.04
2022-10-10T15:55:39.947Z,16.00
2022-10-10T16:02:06.321Z,15.97
2022-10-10T16:05:31.509Z,15.93
2022-10-10T16:08:43.662Z,15.87
2022-10-10T16:11:48.254Z,15.83
2022-10-10T16:14:51.438Z,15.76
2022-10-10T16:17:58.730Z,15.70
2022-10-10T16:21:07.562Z,15.47
2022-10-10T16:24:13.666Z,15.58
2022-10-10T16:27:17.053Z,15.62
2022-10-10T16:30:21.619Z,15.49
2022-10-10T16:33:24.763Z,15.48
2022-10-10T16:36:30.400Z,15.34
2022-10-10T16:39:34.987Z,15.09
2022-10-10T16:42:38.321Z,14.84
2022-10-10T16:45:46.360Z,14.59
2022-10-10T16:48:50.071Z,14.50
2022-10-10T16:51:54.334Z,14.63
2022-10-10T16:55:00.749Z,14.69
2022-10-10T16:58:04.239Z,14.60
2022-10-10T17:01:09.961Z,14.40
2022-10-10T17:04:14.766Z,14.18
2022-10-10T17:07:17.974Z,13.82
2022-10-10T17:10:22.393Z,13.99
2022-10-10T17:13:26.039Z,14.01
2022-10-10T17:19:53.720Z,13.71
2022-10-10T17:22:56.916Z,13.47
2022-10-10T17:26:09.671Z,13.57
2022-10-10T17:29:15.394Z,13.47
2022-10-10T17:32:18.534Z,13.29
2022-10-10T17:35:21.614Z,12.85
2022-10-10T17:38:39.491Z,12.76
2022-10-10T17:49:30.253Z,12.82
2022-10-10T17:52:46.781Z,12.61
2022-10-10T17:55:57.557Z,12.45
2022-10-10T17:59:55.968Z,12.73
2022-10-10T18:03:32.480Z,12.80
2022-10-10T18:06:38.443Z,12.86
2022-10-10T18:09:46.610Z,12.86
2022-10-10T18:13:21.309Z,12.70
2022-10-10T18:16:50.214Z,12.75
2022-10-10T18:19:56.343Z,12.73
2022-10-10T18:23:04.065Z,12.75
2022-10-10T18:26:17.613Z,12.39
2022-10-10T18:29:25.570Z,12.26
2022-10-10T18:32:55.966Z,12.42
2022-10-10T18:36:24.962Z,12.40
2022-10-10T18:39:41.354Z,11.85
2022-10-10T18:42:52.034Z,11.75
2022-10-10T18:46:06.046Z,11.75
2022-10-10T18:49:20.213Z,11.93
2022-10-10T18:52:31.747Z,12.01
2022-10-10T18:55:38.481Z,11.84
2022-10-10T18:59:17.231Z,11.71
2022-10-10T19:02:22.030Z,11.83
2022-10-10T19:05:25.350Z,11.87
2022-10-10T19:08:31.975Z,11.86
2022-10-10T19:11:45.331Z,11.88
2022-10-10T19:14:58.563Z,11.82
2022-10-10T19:18:28.162Z,11.83
2022-10-10T19:21:51.576Z,11.41
2022-10-10T19:25:20.341Z,11.06
2022-10-10T19:28:37.147Z,10.97
2022-10-10T19:31:50.600Z,10.89
2022-10-10T19:34:57.751Z,10.92
2022-10-10T19:38:09.729Z,10.65
2022-10-10T19:41:23.410Z,10.82
2022-10-10T19:44:29.187Z,10.84
2022-10-10T19:47:42.330Z,10.65
2022-10-10T19:51:12.396Z,10.70
2022-10-10T19:54:19.997Z,10.72
2022-10-10T19:58:07.155Z,10.60
2022-10-10T20:01:29.687Z,10.49
2022-10-10T20:04:39.997Z,10.45
2022-10-10T20:07:54.405Z,10.50
2022-10-10T20:11:07.319Z,10.50
2022-10-10T20:14:29.016Z,10.54
2022-10-10T20:17:48.220Z,10.35
2022-10-10T20:20:55.545Z,10.34
2022-10-10T20:24:10.061Z,10.43
2022-10-10T20:27:30.186Z,10.56
2022-10-10T20:30:48.888Z,10.71
2022-10-10T20:34:12.470Z,10.80
2022-10-10T20:37:30.181Z,10.81
2022-10-10T20:40:47.146Z,10.97
2022-10-10T20:44:12.211Z,11.01
2022-10-10T20:47:59.595Z,11.05
2022-10-10T20:51:51.884Z,11.09
2022-10-10T20:55:23.366Z,11.05
2022-10-10T20:58:53.507Z,11.04
2022-10-10T21:01:56.601Z,11.04
2022-10-10T21:05:06.645Z,11.06
2022-10-10T21:08:23.547Z,11.05
2022-10-10T21:11:34.770Z,11.07
2022-10-10T21:14:42.471Z,11.03
2022-10-10T21:18:06.692Z,10.90
2022-10-10T21:21:17.989Z,10.90
2022-10-10T21:24:34.203Z,10.75
2022-10-10T21:27:45.081Z,10.63
2022-10-10T21:31:02.768Z,10.73
2022-10-10T21:34:26.470Z,10.79
2022-10-10T21:37:44.377Z,10.70
2022-10-10T21:41:06.156Z,10.79
2022-10-10T21:44:39.280Z,10.64
2022-10-10T21:48:06.355Z,10.56
2022-10-10T21:55:19.609Z,10.70
2022-10-10T21:58:46.615Z,10.59
2022-10-10T22:01:57.017Z,10.61
2022-10-10T22:05:04.543Z,10.55
2022-10-10T22:08:09.121Z,10.42
2022-10-10T22:11:31.595Z,10.12
2022-10-10T22:14:38.136Z,10.29
2022-10-10T22:17:43.243Z,10.28
2022-10-10T22:20:57.009Z,10.26
2022-10-10T22:24:12.612Z,10.23
2022-10-10T22:27:45.290Z,9.96
2022-10-10T22:31:07.271Z,9.87
2022-10-10T22:34:22.410Z,9.73
2022-10-10T22:37:38.984Z,9.64
2022-10-10T22:40:55.595Z,9.73
2022-10-10T22:44:07.957Z,9.44
2022-10-10T22:47:11.092Z,9.62
2022-10-10T22:50:14.289Z,9.51
2022-10-10T22:53:27.888Z,9.15
2022-10-10T22:56:41.141Z,9.41
2022-10-10T22:59:51.915Z,9.36
2022-10-10T23:03:00.960Z,9.10
2022-10-10T23:06:05.269Z,9.25
2022-10-10T23:09:14.663Z,8.92
2022-10-10T23:12:26.734Z,8.93
2022-10-10T23:15:39.744Z,9.08
2022-10-10T23:18:48.940Z,8.97
2022-10-10T23:21:53.019Z,8.90
2022-10-10T23:24:57.968Z,8.96
2022-10-10T23:28:02.656Z,8.99
2022-10-10T23:31:09.417Z,8.98
2022-10-10T23:34:12.514Z,9.01
2022-10-10T23:37:15.957Z,9.12
2022-10-10T23:40:19.138Z,9.21
2022-10-10T23:43:22.173Z,9.30
2022-10-10T23:46:28.687Z,9.40
2022-10-10T23:49:32.331Z,9.20
2022-10-10T23:52:36.923Z,9.20
2022-10-10T23:55:41.599Z,9.26
2022-10-10T23:58:45.683Z,9.22
